Latest Weather Observations for Newdegate

IDW60801

Issued at 7:32 pm WST Tuesday 31 May 2016 (issued every 30 minutes, with the page automatically refreshed every 10 minutes)

About weather observations | Map of weather stations | Latest weather observations for WA | Other Formats
Station Details ID: 010692 Name: NEWDEGATE RESEARCH STATION Lat: -33.11 Lon: 118.84 Height: 320.0 m
Data from the previous 72 hours. | See also: Recent months at Newdegate
Date/Time
WST
Temp
°C
App
Temp
°C
Dew
Point
Rel
Hum
%
Delta-T
°C
Wind Press
QNH
hPa
Press
MSL
hPa
Rain
since 9 am
mm
Dir
 
Spd
km/h
Gust
km/h
Spd
kts
Gust
kts
31/07:30pm 6.8 5.2 4.3 84 1.1 SSW 2 4 1 2 1021.8 1021.6 0.0
31/07:00pm 6.9 4.0 4.4 84 1.1 S 9 9 5 5 1021.6 1021.4 0.0
31/06:30pm 7.0 4.4 4.3 83 1.2 NNE 7 9 4 5 1021.3 1021.1 0.0
31/06:00pm 7.8 5.3 4.7 81 1.4 NNE 7 9 4 5 1021.0 1020.8 0.0
31/05:30pm 8.8 6.9 4.8 76 1.8 NNE 4 4 2 2 1020.7 1020.5 0.0
31/05:00pm 12.4 10.7 5.8 64 3.1 NNE 4 4 2 2 1020.4 1020.2 0.0
31/04:30pm 14.8 13.2 6.4 57 4.1 NNE 4 6 2 3 1020.3 1020.1 0.0
31/04:00pm 14.9 12.9 6.2 56 4.3 NNE 6 6 3 3 1020.0 1019.7 0.0
31/03:30pm 15.9 14.7 6.3 53 4.7 NNE 2 6 1 3 1019.9 1019.6 0.0
31/03:00pm 15.8 14.1 6.0 52 4.8 N 4 7 2 4 1019.7 1019.4 0.0
31/02:30pm 15.4 13.7 5.9 53 4.6 NNW 4 6 2 3 1019.8 1019.5 0.0
31/02:00pm 15.7 14.2 6.7 55 4.5 NNW 4 7 2 4 1019.9 1019.6 0.0
31/01:30pm 15.0 13.5 6.6 57 4.2 N 4 7 2 4 1019.9 1019.6 0.0
31/01:00pm 14.8 13.1 7.6 62 3.6 NNE 6 9 3 5 1020.0 1019.7 0.0
31/12:30pm 14.0 12.1 6.8 62 3.5 NNE 6 9 3 5 1020.3 1020.1 0.0
31/12:00pm 12.8 10.8 6.4 65 3.1 NNE 6 11 3 6 1020.9 1020.7 0.0
31/11:30am 10.7 9.5 6.3 74 2.1 NW 2 4 1 2 1021.4 1021.2 0.0
31/11:00am 10.0 8.1 6.5 79 1.7 NNE 6 7 3 4 1021.8 1021.6 0.0
31/10:30am 9.4 8.1 7.7 89 0.8 NE 4 7 2 4 1022.1 1021.9 0.0
31/10:00am 8.3 6.8 6.9 91 0.7 ENE 4 6 2 3 1022.4 1022.1 0.0
31/09:30am 7.6 6.4 6.4 92 0.6 E 2 4 1 2 1022.5 1022.2 0.0
31/09:00am 6.5 4.7 5.3 92 0.5 ESE 4 6 2 3 1022.4 1022.1 0.0
31/08:30am 5.7 4.5 4.5 92 0.5 CALM 0 4 0 2 1022.4 1022.1 0.0
31/08:00am 4.4 2.6 3.2 92 0.5 SSE 2 4 1 2 1021.9 1021.7 0.0
31/07:30am 3.7 1.4 2.5 92 0.5 SE 4 6 2 3 1021.7 1021.5 0.0
31/07:00am 1.5 -0.4 0.3 92 0.4 CALM 0 0 0 0 1021.6 1021.4 0.0
31/06:30am 0.9 -1.1 -0.4 91 0.5 CALM 0 0 0 0 1021.2 1021.0 0.0
31/06:00am 0.8 -1.3 -0.5 91 0.5 CALM 0 0 0 0 1020.8 1020.6 0.0
31/05:30am 1.2 -1.2 -0.1 91 0.5 ESE 2 2 1 1 1020.6 1020.4 0.0
31/05:00am 1.5 -1.2 0.2 91 0.5 ESE 4 4 2 2 1020.2 1019.9 0.0
31/04:30am 1.5 -1.6 0.2 91 0.5 SE 6 6 3 3 1020.1 1019.8 0.0
31/04:00am 1.9 -0.8 0.6 91 0.5 ESE 4 6 2 3 1020.2 1019.9 0.0
31/03:30am 2.7 0.2 1.4 91 0.5 ESE 4 6 2 3 1020.2 1019.9 0.0
31/03:00am 3.0 0.9 1.7 91 0.5 ESE 2 2 1 1 1020.2 1019.9 0.0
31/02:30am 2.8 -0.1 1.5 91 0.5 ESE 6 6 3 3 1020.0 1019.7 0.0
31/02:00am 2.5 -0.1 1.0 90 0.6 ESE 4 4 2 2 1020.2 1019.9 0.0
31/01:30am 2.5 -0.1 1.0 90 0.6 SE 4 6 2 3 1020.2 1019.9 0.0
31/01:00am 2.8 0.3 1.3 90 0.6 SE 4 6 2 3 1020.2 1019.9 0.0
31/12:30am 3.1 0.2 1.6 90 0.6 SE 6 7 3 4 1020.3 1020.1 0.0
31/12:00am 3.1 0.2 1.6 90 0.6 SE 6 6 3 3 1020.3 1020.1 0.0
 
Date/Time
WST
Temp
°C
App
Temp
°C
Dew
Point
Rel
Hum
%
Delta-T
°C
Wind Press
QNH
hPa
Press
MSL
hPa
Rain
since 9 am
mm
Dir
 
Spd
km/h
Gust
km/h
Spd
kts
Gust
kts
30/11:30pm 3.0 0.5 1.4 89 0.6 ESE 4 4 2 2 1020.4 1020.2 0.0
30/11:00pm 2.7 0.9 1.1 89 0.6 CALM 0 0 0 0 1020.5 1020.3 0.0
30/10:30pm 3.2 1.5 1.6 89 0.6 CALM 0 0 0 0 1020.7 1020.5 0.0
30/10:00pm 3.5 1.8 1.7 88 0.7 CALM 0 0 0 0 1021.0 1020.8 0.0
30/09:30pm 4.1 2.5 2.3 88 0.7 CALM 0 0 0 0 1021.0 1020.8 0.0
30/09:00pm 4.0 2.3 2.0 87 0.8 CALM 0 0 0 0 1021.0 1020.8 0.0
30/08:30pm 5.3 3.5 3.3 87 0.8 S 2 4 1 2 1020.9 1020.7 0.0
30/08:00pm 4.5 2.9 2.4 86 0.9 CALM 0 0 0 0 1020.8 1020.6 0.0
30/07:30pm 5.2 3.3 2.7 84 1.0 SW 2 2 1 1 1020.6 1020.4 0.0
30/07:00pm 5.6 4.1 2.9 83 1.1 CALM 0 0 0 0 1020.4 1020.2 0.0
30/06:30pm 5.9 3.3 3.1 82 1.2 SSE 6 7 3 4 1020.1 1019.8 0.0
30/06:00pm 6.9 4.4 3.7 80 1.4 SSE 6 6 3 3 1020.1 1019.8 0.0
30/05:30pm 8.1 6.7 3.8 74 1.9 CALM 0 0 0 0 1019.8 1019.5 0.0
30/05:00pm 11.9 10.3 4.6 61 3.4 ENE 2 4 1 2 1019.6 1019.3 0.0
30/04:30pm 13.0 11.0 4.4 56 4.0 ENE 4 7 2 4 1019.3 1019.0 0.0
30/04:00pm 13.9 11.6 4.8 54 4.3 ESE 6 9 3 5 1019.0 1018.7 0.0
30/03:30pm 14.1 10.8 4.7 53 4.4 E 11 15 6 8 1018.7 1018.5 0.0
30/03:00pm 14.4 12.5 4.7 52 4.6 E 4 6 2 3 1018.7 1018.5 0.0
30/02:30pm 13.7 11.5 5.1 56 4.1 SE 6 17 3 9 1018.6 1018.4 0.0
30/02:00pm 14.2 11.7 5.0 54 4.4 N 7 13 4 7 1018.8 1018.6 0.0
30/01:30pm 14.2 11.8 4.2 51 4.7 NNW 6 15 3 8 1019.2 1018.9 0.0
30/01:00pm 13.2 10.6 4.4 55 4.1 NNE 7 13 4 7 1019.4 1019.1 0.0
30/12:30pm 13.8 11.1 3.9 51 4.6 N 7 15 4 8 1019.6 1019.3 0.0
30/12:00pm 13.4 10.8 4.0 53 4.3 N 7 15 4 8 1019.9 1019.6 0.0
30/11:30am 13.3 10.9 4.2 54 4.2 ENE 6 11 3 6 1020.1 1019.8 0.0
30/11:00am 12.5 10.0 4.5 58 3.7 ENE 7 13 4 7 1020.6 1020.4 0.0
30/10:30am 11.8 8.6 5.2 64 3.1 ENE 11 15 6 8 1020.9 1020.7 0.0
30/10:00am 11.4 8.4 5.9 69 2.6 E 11 15 6 8 1021.2 1021.0 0.0
30/09:30am 10.5 8.0 6.6 77 1.9 E 9 13 5 7 1021.2 1021.0 0.0
30/09:00am 9.5 7.6 7.4 87 1.0 E 7 13 4 7 1021.1 1020.9 0.2
30/08:30am 7.8 5.8 6.4 91 0.7 E 6 7 3 4 1020.9 1020.7 0.2
30/08:00am 5.9 4.7 4.7 92 0.5 CALM 0 0 0 0 1020.9 1020.7 0.2
30/07:30am 3.3 1.6 2.0 91 0.5 CALM 0 0 0 0 1020.4 1020.2 0.2
30/07:00am 3.2 1.5 1.7 90 0.6 CALM 0 0 0 0 1020.2 1019.9 0.2
30/06:30am 3.6 1.2 2.3 91 0.5 SSE 4 4 2 2 1019.9 1019.6 0.2
30/06:00am 3.0 1.2 1.5 90 0.6 CALM 0 0 0 0 1019.7 1019.4 0.2
30/05:30am 1.5 -0.5 -0.1 89 0.6 CALM 0 0 0 0 1019.6 1019.3 0.2
30/05:00am 2.0 0.1 0.4 89 0.6 CALM 0 0 0 0 1019.5 1019.2 0.2
30/04:30am 2.1 0.2 0.3 88 0.7 CALM 0 0 0 0 1019.6 1019.3 0.2
30/04:00am 3.4 1.7 1.8 89 0.6 CALM 0 0 0 0 1019.6 1019.3 0.2
30/03:30am 3.1 1.3 1.3 88 0.7 CALM 0 2 0 1 1019.5 1019.2 0.2
30/03:00am 3.3 1.1 1.3 87 0.8 WSW 2 4 1 2 1019.7 1019.4 0.2
30/02:30am 4.3 2.6 1.8 84 1.0 CALM 0 0 0 0 1019.8 1019.5 0.2
30/02:00am 6.3 4.6 3.8 84 1.1 WSW 2 4 1 2 1019.9 1019.6 0.2
30/01:30am 7.3 5.8 4.8 84 1.1 NW 2 4 1 2 1020.0 1019.7 0.2
30/01:00am 7.4 6.3 4.9 84 1.1 CALM 0 0 0 0 1020.1 1019.8 0.2
30/12:30am 6.7 4.7 4.4 85 1.0 SSW 4 4 2 2 1020.4 1020.2 0.2
30/12:00am 6.2 4.8 3.7 84 1.1 CALM 0 0 0 0 1020.5 1020.3 0.2
 
Date/Time
WST
Temp
°C
App
Temp
°C
Dew
Point
Rel
Hum
%
Delta-T
°C
Wind Press
QNH
hPa
Press
MSL
hPa
Rain
since 9 am
mm
Dir
 
Spd
km/h
Gust
km/h
Spd
kts
Gust
kts
29/11:30pm 6.1 3.6 3.8 85 1.0 NE 6 9 3 5 1020.4 1020.2 0.2
29/11:00pm 4.9 1.7 2.8 86 0.9 SSE 9 9 5 5 1020.2 1019.9 0.2
29/10:30pm 4.4 1.4 1.9 84 1.0 SSE 7 7 4 4 1020.4 1020.2 0.2
29/10:00pm 5.4 2.1 2.6 82 1.2 S 9 9 5 5 1020.4 1020.2 0.2
29/09:30pm 7.1 3.7 3.9 80 1.4 SSW 11 11 6 6 1020.4 1020.2 0.2
29/09:00pm 7.6 4.9 3.8 77 1.7 S 7 9 4 5 1020.3 1020.1 0.0
29/08:30pm 9.1 6.6 4.9 75 1.9 SSE 7 9 4 5 1020.3 1020.1 0.0
29/08:00pm 10.2 7.4 5.2 71 2.3 S 9 11 5 6 1020.2 1019.9 0.0
29/07:30pm 10.3 7.5 5.1 70 2.4 SSE 9 11 5 6 1020.0 1019.7 0.0
29/07:00pm 10.7 7.9 5.0 68 2.6 S 9 11 5 6 1019.8 1019.5 0.0
29/06:30pm 11.1 7.5 5.0 66 2.8 SSE 13 17 7 9 1019.6 1019.3 0.0
29/06:00pm 11.2 8.1 5.5 68 2.7 SSE 11 15 6 8 1019.2 1018.9 0.0
29/05:30pm 11.4 8.3 5.7 68 2.7 S 11 17 6 9 1018.8 1018.6 0.0
29/05:00pm 11.8 8.3 5.4 65 3.0 SSE 13 15 7 8 1018.4 1018.2 0.0
29/04:30pm 12.3 8.9 5.9 65 3.1 S 13 17 7 9 1018.3 1018.1 0.0
29/04:00pm 12.8 9.4 5.9 63 3.3 S 13 17 7 9 1018.1 1017.9 0.0
29/03:30pm 13.1 10.2 6.5 64 3.2 S 11 17 6 9 1017.9 1017.7 0.0
29/03:00pm 12.7 9.9 7.0 68 2.8 SSE 11 17 6 9 1017.7 1017.5 0.0
29/02:30pm 13.0 10.8 6.4 64 3.2 S 7 11 4 6 1017.7 1017.5 0.0
29/02:00pm 13.1 9.2 7.1 67 3.0 SSW 17 20 9 11 1017.6 1017.4 0.0
29/01:30pm 13.3 10.9 7.1 66 3.1 SW 9 15 5 8 1017.7 1017.5 0.0
29/01:00pm 13.4 10.2 6.7 64 3.3 S 13 19 7 10 1017.9 1017.7 0.0
29/12:30pm 13.8 12.1 8.4 70 2.7 SW 7 13 4 7 1018.0 1017.8 0.0
29/12:00pm 12.6 10.7 7.5 71 2.5 SSE 7 15 4 8 1018.2 1018.0 0.0
29/11:30am 11.5 9.5 8.5 82 1.5 SSW 9 13 5 7 1018.6 1018.4 0.0
29/11:00am 11.4 9.5 9.0 85 1.2 SSW 9 15 5 8 1019.1 1018.8 0.0
29/10:30am 10.6 8.4 9.4 92 0.6 SSW 11 15 6 8 1019.3 1019.0 0.0
29/10:00am 9.6 7.5 8.4 92 0.6 SSW 9 13 5 7 1019.4 1019.1 0.0
29/09:30am 9.3 7.2 8.2 93 0.5 SSW 9 19 5 10 1019.2 1018.9 0.0
29/09:00am 8.8 5.8 7.7 93 0.5 SW 13 17 7 9 1018.8 1018.6 0.2
29/08:30am 8.1 5.3 7.0 93 0.5 SSW 11 15 6 8 1018.7 1018.5 0.2
29/08:00am 8.1 4.6 7.0 93 0.5 SW 15 20 8 11 1018.3 1018.1 0.2
29/07:30am 7.6 3.5 6.4 92 0.6 SW 17 24 9 13 1018.0 1017.8 0.2
29/07:00am 7.3 3.6 6.1 92 0.6 SW 15 19 8 10 1017.7 1017.5 0.2
29/06:30am 7.4 2.9 6.2 92 0.6 SW 19 22 10 12 1017.5 1017.2 0.2
29/06:00am 6.6 3.5 5.4 92 0.5 SW 11 13 6 7 1017.0 1016.7 0.2
29/05:30am 6.1 2.8 4.7 91 0.6 WSW 11 15 6 8 1016.8 1016.5 0.2
29/05:00am 6.4 2.8 5.0 91 0.6 WSW 13 17 7 9 1016.4 1016.1 0.2
29/04:30am 6.3 3.1 4.9 91 0.6 WSW 11 13 6 7 1016.1 1015.8 0.2
29/04:00am 6.3 3.4 4.9 91 0.6 WSW 9 13 5 7 1016.0 1015.7 0.2
29/03:30am 6.4 3.6 5.0 91 0.6 W 9 11 5 6 1015.8 1015.5 0.2
29/03:00am 6.2 2.9 4.8 91 0.6 WSW 11 13 6 7 1015.7 1015.4 0.0
29/02:30am 6.3 2.7 4.9 91 0.6 SW 13 13 7 7 1015.5 1015.3 0.0
29/02:00am 6.3 3.4 4.8 90 0.7 WSW 9 11 5 6 1015.4 1015.2 0.0
29/01:30am 6.8 3.6 5.3 90 0.7 WSW 11 13 6 7 1015.3 1015.1 0.0
29/01:00am 7.2 4.1 5.7 90 0.7 WSW 11 13 6 7 1015.3 1015.1 0.0
29/12:30am 6.8 4.0 5.3 90 0.7 WSW 9 11 5 6 1015.3 1015.1 0.0
29/12:00am 6.7 4.2 5.0 89 0.8 WSW 7 9 4 5 1015.5 1015.3 0.0
 
Date/Time
WST
Temp
°C
App
Temp
°C
Dew
Point
Rel
Hum
%
Delta-T
°C
Wind Press
QNH
hPa
Press
MSL
hPa
Rain
since 9 am
mm
Dir
 
Spd
km/h
Gust
km/h
Spd
kts
Gust
kts
28/11:30pm 6.7 3.8 4.9 88 0.8 WSW 9 9 5 5 1015.5 1015.3 0.0
28/11:00pm 8.5 5.6 6.6 88 0.9 SW 11 13 6 7 1015.4 1015.2 0.0
28/10:30pm 8.0 5.4 6.0 87 0.9 SW 9 11 5 6 1015.3 1015.1 0.0
28/10:00pm 8.9 5.7 7.0 88 0.9 SW 13 15 7 8 1015.2 1015.0 0.0
28/09:30pm 8.3 5.4 6.3 87 0.9 SW 11 11 6 6 1015.1 1014.9 0.0
28/09:00pm 9.7 7.0 7.3 85 1.2 SW 11 13 6 7 1015.0 1014.8 0.0
28/08:30pm 9.6 6.9 7.5 87 1.0 WSW 11 17 6 9 1014.9 1014.7 0.0
28/08:00pm 8.8 6.9 6.6 86 1.0 WSW 6 7 3 4 1014.7 1014.4 0.0

Other Formats:

Comma delimited format used in spreadsheet applications
http://www.bom.gov.au/fwo/IDW60801/IDW60801.94628.axf

JavaScript Object Notation format (JSON) in row-major order
http://www.bom.gov.au/fwo/IDW60801/IDW60801.94628.json